Terminal Aerodrome Forecast
Issued by NWS

Home | Current Version | Previous Version | Text Only | Print | Product List | Glossary On
Versions: 1 2 3 4 5 6 7 8 9 10 11 12 13 14 15 16 17 18 19 20 21 22 23 24 25 26 27 28
108
FTUS42 KGSP 080040 AAA
TAFGMU
TAF AMD
KGMU 080040Z 0801/0824 18005KT P6SM SCT008 OVC012
      TEMPO 0801/0803 BKN008 OVC012
     FM080500 00000KT 5SM BR OVC015
     FM081000 28003KT P6SM OVC025
     FM081400 34008KT P6SM SCT035 OVC090
     FM081800 33010G18KT P6SM SCT150 BKN250=

USA.gov is the U.S. government's official web portal to all federal, state and local government web resources and services.